Time;durP1;ratioP1;P1;durP2;ratioP2;P2;SDS_P1;SDS_P2;PMS_P1;PMS_P2;Temp;Humidity;BMP_temperature;BMP_pressure;BME280_temperature;BME280_humidity;BME280_pressure;Samples;Min_cycle;Max_cycle;Signal;HPM_P1;HPM_P2
2021/11/27 00:00:27;;;;;;;19.75;11.18;;;;;;;4.70;87.32;97892.77;1651783;84;21126;-62
2021/11/27 00:02:57;;;;;;;20.30;11.60;;;;;;;4.70;88.10;97890.59;1698439;83;21744;-64
2021/11/27 00:05:24;;;;;;;15.43;10.70;;;;;;;4.69;88.07;97889.77;1665652;83;21095;-62
2021/11/27 00:07:51;;;;;;;15.98;11.25;;;;;;;4.70;88.44;97887.30;1665411;83;21099;-63
2021/11/27 00:10:22;;;;;;;19.87;13.10;;;;;;;4.71;88.55;97884.80;1691807;83;21020;-62
2021/11/27 00:12:49;;;;;;;18.55;13.10;;;;;;;4.70;88.71;97871.48;1689846;83;21102;-65
2021/11/27 00:15:17;;;;;;;21.05;12.65;;;;;;;4.72;89.00;97866.52;1687023;83;21045;-62
2021/11/27 00:17:44;;;;;;;21.82;13.48;;;;;;;4.71;89.02;97863.52;1683722;84;21830;-64
2021/11/27 00:20:16;;;;;;;20.17;14.05;;;;;;;4.73;89.16;97853.09;1689524;83;21481;-62
2021/11/27 00:22:43;;;;;;;28.45;16.23;;;;;;;4.74;89.33;97855.50;1686189;84;21034;-62
2021/11/27 00:25:09;;;;;;;25.82;16.12;;;;;;;4.77;89.46;97839.62;1655329;84;21047;-66
2021/11/27 00:27:37;;;;;;;27.87;14.87;;;;;;;4.75;89.58;97839.39;1658270;84;21065;-63
2021/11/27 00:30:06;;;;;;;32.80;17.42;;;;;;;4.75;89.74;97834.48;1678867;84;21138;-63
2021/11/27 00:32:36;;;;;;;26.40;17.27;;;;;;;4.75;89.81;97828.47;1674200;84;21527;-64
2021/11/27 00:35:04;;;;;;;35.40;18.20;;;;;;;4.75;89.85;97823.56;1679312;83;21784;-65
2021/11/27 00:37:31;;;;;;;28.50;17.23;;;;;;;4.75;89.95;97815.38;1657339;84;21563;-64
2021/11/27 00:39:57;;;;;;;26.33;17.52;;;;;;;4.75;90.15;97812.09;1686721;84;21090;-65
2021/11/27 00:42:23;;;;;;;31.17;17.10;;;;;;;4.74;90.24;97800.14;1670771;84;21164;-65
2021/11/27 00:44:52;;;;;;;31.23;16.97;;;;;;;4.72;91.06;97792.84;1672726;84;21111;-64
2021/11/27 00:47:20;;;;;;;31.45;16.07;;;;;;;4.70;91.30;97790.44;1677289;84;21563;-65
2021/11/27 00:49:53;;;;;;;29.15;17.15;;;;;;;4.71;91.53;97784.39;1700063;83;21610;-63
2021/11/27 00:52:16;;;;;;;24.25;15.43;;;;;;;4.74;91.66;97775.59;1659110;84;21021;-62
2021/11/27 00:54:43;;;;;;;29.72;16.02;;;;;;;4.73;91.28;97776.14;1681564;84;21209;-65
2021/11/27 00:57:12;;;;;;;32.38;17.80;;;;;;;4.73;91.33;97769.88;1688067;83;21003;-64
2021/11/27 00:59:38;;;;;;;30.10;16.80;;;;;;;4.74;91.49;97757.84;1692155;84;21043;-65
2021/11/27 01:02:07;;;;;;;30.25;17.32;;;;;;;4.77;91.58;97750.92;1670023;84;21111;-62
2021/11/27 01:04:34;;;;;;;21.55;14.93;;;;;;;4.75;91.56;97747.16;1677012;83;21157;-64
2021/11/27 01:07:00;;;;;;;24.63;14.87;;;;;;;4.77;91.72;97736.73;1677737;84;21821;-65
2021/11/27 01:09:27;;;;;;;29.27;16.52;;;;;;;4.76;91.93;97728.28;1675457;83;21547;-62
2021/11/27 01:11:56;;;;;;;24.75;15.00;;;;;;;4.74;91.89;97727.83;1696051;83;21071;-64
2021/11/27 01:14:25;;;;;;;27.55;16.02;;;;;;;4.74;92.12;97712.82;1672316;83;21315;-64
2021/11/27 01:16:58;;;;;;;26.95;15.90;;;;;;;4.74;92.16;97712.82;1676460;83;21099;-62
2021/11/27 01:19:25;;;;;;;27.58;14.70;;;;;;;4.73;92.34;97711.20;1680118;83;21148;-64
2021/11/27 01:21:56;;;;;;;24.60;13.28;;;;;;;4.72;92.67;97697.33;1678111;84;21112;-64
2021/11/27 01:24:25;;;;;;;22.73;14.58;;;;;;;4.71;92.85;97696.52;1682102;83;21016;-66
2021/11/27 01:26:54;;;;;;;29.65;14.28;;;;;;;4.71;92.85;97695.71;1682446;83;21591;-64
2021/11/27 01:29:22;;;;;;;25.70;14.68;;;;;;;4.67;93.00;97683.86;1685090;83;21094;-65
2021/11/27 01:31:50;;;;;;;22.17;14.75;;;;;;;4.66;93.21;97675.45;1684177;84;21091;-65
2021/11/27 01:34:18;;;;;;;23.42;15.05;;;;;;;4.67;93.40;97672.95;1686546;84;21171;-62
2021/11/27 01:36:44;;;;;;;19.25;12.58;;;;;;;4.70;93.49;97674.47;1677242;84;21070;-65
2021/11/27 01:39:11;;;;;;;24.57;15.45;;;;;;;4.71;93.72;97678.78;1678233;84;21596;-66
2021/11/27 01:41:37;;;;;;;31.80;16.25;;;;;;;4.64;95.91;97670.30;1686132;84;21095;-64
2021/11/27 01:44:06;;;;;;;26.50;15.88;;;;;;;4.63;94.54;97668.70;1689745;84;21060;-64
2021/11/27 01:46:34;;;;;;;28.98;16.65;;;;;;;4.68;94.57;97662.27;1685562;83;21032;-67
2021/11/27 01:49:02;;;;;;;25.00;15.90;;;;;;;4.72;94.53;97656.41;1684599;84;21517;-66
2021/11/27 01:51:30;;;;;;;27.40;15.98;;;;;;;4.72;94.52;97657.77;1682199;84;21144;-63
2021/11/27 01:54:02;;;;;;;23.70;14.73;;;;;;;4.75;94.62;97648.92;1661267;84;21004;-65
2021/11/27 01:56:30;;;;;;;21.17;13.80;;;;;;;4.75;94.56;97632.55;1672054;84;21154;-66
2021/11/27 01:58:58;;;;;;;22.17;14.63;;;;;;;4.76;94.67;97621.86;1683766;84;21075;-67
2021/11/27 02:01:29;;;;;;;23.25;14.20;;;;;;;4.79;94.75;97629.41;1647341;84;21501;-63
2021/11/27 02:03:56;;;;;;;26.87;14.03;;;;;;;4.79;95.36;97623.96;1685379;84;21504;-65
2021/11/27 02:06:25;;;;;;;27.73;12.58;;;;;;;4.80;95.48;97614.63;1689249;84;21488;-64
2021/11/27 02:08:54;;;;;;;26.57;12.25;;;;;;;4.82;95.21;97617.03;1684566;84;21161;-65
2021/11/27 02:11:28;;;;;;;20.20;12.47;;;;;;;4.83;95.11;97611.24;1651259;84;21211;-65
2021/11/27 02:13:55;;;;;;;16.50;11.57;;;;;;;4.86;95.14;97614.67;1677759;84;21533;-63
2021/11/27 02:16:25;;;;;;;19.25;11.65;;;;;;;4.85;95.14;97611.72;1680381;83;21097;-64
2021/11/27 02:18:52;;;;;;;20.72;12.15;;;;;;;4.85;95.25;97604.90;1700360;82;20997;-61
2021/11/27 02:21:21;;;;;;;19.55;11.22;;;;;;;4.85;95.31;97605.45;1678515;84;21078;-64
2021/11/27 02:23:49;;;;;;;19.80;11.53;;;;;;;4.82;95.39;97596.01;1675858;84;21035;-64
2021/11/27 02:26:18;;;;;;;21.70;10.35;;;;;;;4.83;95.52;97588.05;1681969;83;21075;-63
2021/11/27 02:28:51;;;;;;;14.33;9.03;;;;;;;4.86;95.67;97583.88;1678851;84;21014;-64
2021/11/27 02:31:20;;;;;;;15.58;9.10;;;;;;;4.90;95.74;97581.26;1659195;83;21102;-61
2021/11/27 02:33:47;;;;;;;11.90;8.33;;;;;;;4.90;95.77;97566.25;1671345;84;21932;-63
2021/11/27 02:36:14;;;;;;;13.98;8.08;;;;;;;4.92;96.04;97562.63;1670202;84;21023;-64
2021/11/27 02:38:40;;;;;;;13.78;8.33;;;;;;;4.93;96.06;97565.03;1668510;84;21025;-64
2021/11/27 02:41:08;;;;;;;10.50;7.47;;;;;;;4.91;97.04;97562.41;1690800;83;21465;-64
2021/11/27 02:43:35;;;;;;;13.58;8.63;;;;;;;4.90;98.15;97553.97;1701152;83;21076;-63
2021/11/27 02:46:02;;;;;;;11.05;7.97;;;;;;;4.90;98.66;97553.41;1696317;83;21588;-62
2021/11/27 02:48:31;;;;;;;12.40;7.87;;;;;;;4.91;98.92;97548.76;1697942;83;21052;-64
2021/11/27 02:50:58;;;;;;;10.28;7.55;;;;;;;4.92;99.15;97553.08;1699652;83;21008;-60
2021/11/27 02:53:25;;;;;;;16.45;7.92;;;;;;;4.96;99.12;97541.75;1697454;83;21489;-63
2021/11/27 02:55:51;;;;;;;12.58;6.95;;;;;;;4.98;98.66;97543.59;1646209;84;21081;-65
2021/11/27 02:58:20;;;;;;;13.05;7.80;;;;;;;5.02;98.24;97533.59;1676342;84;21193;-60
2021/11/27 03:00:50;;;;;;;9.43;6.50;;;;;;;5.05;98.17;97518.48;1668522;84;21019;-64
2021/11/27 03:03:17;;;;;;;9.48;6.50;;;;;;;5.08;98.32;97517.82;1682716;83;21090;-63
2021/11/27 03:05:45;;;;;;;9.33;5.87;;;;;;;5.10;98.44;97511.47;1664390;84;21127;-64
2021/11/27 03:08:16;;;;;;;10.68;6.30;;;;;;;5.11;98.37;97515.23;1676033;84;21576;-63
2021/11/27 03:10:44;;;;;;;8.75;5.70;;;;;;;5.11;99.15;97519.88;1693530;83;21789;-62
2021/11/27 03:13:13;;;;;;;7.87;5.87;;;;;;;5.08;99.29;97511.77;1692924;83;21037;-65
2021/11/27 03:15:42;;;;;;;6.90;5.10;;;;;;;5.10;99.67;97512.25;1640214;85;21064;-62
2021/11/27 03:18:11;;;;;;;8.40;5.37;;;;;;;5.11;99.64;97501.58;1693500;82;21497;-64
2021/11/27 03:20:38;;;;;;;6.25;4.40;;;;;;;5.15;99.69;97505.00;1664418;83;21581;-63
2021/11/27 03:23:05;;;;;;;6.70;3.85;;;;;;;5.20;99.84;97498.75;1662593;84;21166;-65
2021/11/27 03:25:32;;;;;;;5.45;3.80;;;;;;;5.25;99.85;97489.58;1655565;84;21051;-63
2021/11/27 03:27:59;;;;;;;5.30;3.75;;;;;;;5.29;99.86;97489.72;1677530;84;21118;-64
2021/11/27 03:30:26;;;;;;;5.67;4.17;;;;;;;5.33;99.91;97494.73;1680729;84;21541;-63
2021/11/27 03:32:56;;;;;;;4.75;3.42;;;;;;;5.33;99.93;97492.80;1696666;83;20997;-64
2021/11/27 03:35:25;;;;;;;3.65;2.92;;;;;;;5.36;100.00;97488.03;1667474;84;21154;-64
2021/11/27 03:37:51;;;;;;;5.42;3.67;;;;;;;5.39;100.00;97495.33;1670521;84;21082;-64
2021/11/27 03:40:21;;;;;;;6.83;3.45;;;;;;;5.42;100.00;97485.91;1672454;84;21076;-64
2021/11/27 03:42:49;;;;;;;3.40;2.70;;;;;;;5.43;100.00;97497.05;1674068;84;21149;-66
2021/11/27 03:45:19;;;;;;;3.45;2.80;;;;;;;5.47;100.00;97499.91;1663504;84;21079;-63
2021/11/27 03:48:12;;;;;;;3.60;2.83;;;;;;;5.51;100.00;97495.36;1666110;84;21805;-64
2021/11/27 03:50:55;;;;;;;3.17;2.67;;;;;;;5.55;100.00;97495.49;1654662;85;21048;-65
2021/11/27 03:53:26;;;;;;;3.60;2.55;;;;;;;5.54;100.00;97486.52;1673936;84;21553;-64
2021/11/27 03:55:55;;;;;;;2.75;2.35;;;;;;;5.55;100.00;97481.83;1666137;84;21604;-66
2021/11/27 03:58:21;;;;;;;5.87;2.70;;;;;;;5.58;100.00;97479.78;1639411;84;21075;-64
2021/11/27 04:00:51;;;;;;;3.27;2.40;;;;;;;5.60;100.00;97481.06;1660456;83;21039;-63
2021/11/27 04:03:19;;;;;;;3.87;2.67;;;;;;;5.63;100.00;97488.36;1677694;84;21091;-65
2021/11/27 04:05:56;;;;;;;3.92;2.37;;;;;;;5.67;100.00;97479.15;1679712;84;21045;-61
2021/11/27 04:08:24;;;;;;;4.62;3.02;;;;;;;5.73;100.00;97481.89;1679220;84;21575;-62
2021/11/27 04:10:52;;;;;;;4.15;2.60;;;;;;;5.78;100.00;97468.59;1682052;84;21118;-59
2021/11/27 04:13:19;;;;;;;2.12;1.82;;;;;;;5.82;100.00;97472.80;1658428;84;21243;-62
2021/11/27 04:15:46;;;;;;;4.00;2.47;;;;;;;5.88;100.00;97472.02;1680098;84;21617;-64
2021/11/27 04:18:14;;;;;;;2.75;2.12;;;;;;;5.92;100.00;97470.22;1675248;84;21072;-63
2021/11/27 04:20:43;;;;;;;4.20;2.47;;;;;;;5.94;100.00;97455.62;1679102;84;21082;-62
2021/11/27 04:23:12;;;;;;;3.67;2.00;;;;;;;5.96;100.00;97453.34;1675063;83;21508;-63
2021/11/27 04:25:39;;;;;;;2.45;1.70;;;;;;;5.97;100.00;97460.43;1681649;84;21117;-62
2021/11/27 04:28:06;;;;;;;2.92;2.17;;;;;;;5.99;100.00;97464.97;1683639;84;21060;-62
2021/11/27 04:30:33;;;;;;;2.33;2.10;;;;;;;6.00;100.00;97472.61;1666787;83;21076;-65
2021/11/27 04:33:01;;;;;;;3.02;2.42;;;;;;;6.00;100.00;97461.11;1667137;84;22124;-63
2021/11/27 04:35:30;;;;;;;3.27;2.12;;;;;;;6.03;100.00;97469.19;1692152;83;21241;-63
2021/11/27 04:37:57;;;;;;;3.77;2.83;;;;;;;6.04;100.00;97483.89;1663857;83;21119;-63
2021/11/27 04:40:35;;;;;;;3.72;2.72;;;;;;;6.05;100.00;97478.69;1617880;87;21576;-62
2021/11/27 04:43:03;;;;;;;5.80;3.35;;;;;;;6.08;100.00;97479.38;1598580;88;21050;-65
2021/11/27 04:45:30;;;;;;;11.33;6.60;;;;;;;6.10;100.00;97477.67;1635942;85;22272;-65
2021/11/27 04:47:57;;;;;;;9.85;6.70;;;;;;;6.12;100.00;97484.16;1648254;86;21020;-63
2021/11/27 04:50:24;;;;;;;4.75;3.40;;;;;;;6.14;100.00;97494.20;1621102;85;21276;-65
2021/11/27 04:52:51;;;;;;;5.10;3.40;;;;;;;6.19;100.00;97493.98;1646014;85;21029;-64
2021/11/27 04:55:19;;;;;;;4.78;3.10;;;;;;;6.23;100.00;97492.14;1649499;86;21092;-65
2021/11/27 04:57:53;;;;;;;5.15;3.52;;;;;;;6.26;100.00;97488.72;1654417;86;21055;-60
2021/11/27 05:00:25;;;;;;;4.50;3.52;;;;;;;6.29;100.00;97487.26;1599147;88;21022;-63
2021/11/27 05:02:53;;;;;;;3.75;3.12;;;;;;;6.30;100.00;97478.70;1647381;85;21100;-64
2021/11/27 05:05:23;;;;;;;4.12;2.75;;;;;;;6.32;100.00;97480.53;1651530;86;21009;-62
2021/11/27 05:07:51;;;;;;;4.20;3.33;;;;;;;6.34;100.00;97476.09;1653403;85;21583;-61
2021/11/27 05:10:17;;;;;;;4.17;3.62;;;;;;;6.37;100.00;97478.14;1598476;88;21175;-62
2021/11/27 05:12:45;;;;;;;5.22;3.60;;;;;;;6.39;100.00;97482.70;1587364;89;21132;-65
2021/11/27 05:15:12;;;;;;;4.53;3.42;;;;;;;6.40;100.00;97475.27;1576050;87;21223;-63
2021/11/27 05:17:42;;;;;;;5.80;3.85;;;;;;;6.44;100.00;97482.48;1620840;87;21047;-64
2021/11/27 05:20:12;;;;;;;5.17;4.00;;;;;;;6.46;100.00;97480.77;1604798;87;21090;-64
2021/11/27 05:22:39;;;;;;;9.00;4.60;;;;;;;6.49;100.00;97473.80;1607097;87;21537;-64
2021/11/27 05:25:07;;;;;;;6.33;5.17;;;;;;;6.51;100.00;97482.46;1605062;87;21036;-64
2021/11/27 05:27:52;;;;;;;7.25;5.15;;;;;;;6.54;100.00;97486.69;1615347;87;21123;-62
2021/11/27 05:30:30;;;;;;;7.83;5.22;;;;;;;6.59;100.00;97487.02;1594658;87;21626;-62
2021/11/27 05:35:33;;;;;;;5.75;4.60;;;;;;;6.61;100.00;97494.32;1613201;87;21118;-64
2021/11/27 05:38:01;;;;;;;7.92;5.67;;;;;;;6.64;100.00;97501.03;1607883;87;21099;-64
2021/11/27 05:40:30;;;;;;;7.97;5.42;;;;;;;6.63;100.00;97502.99;1609285;87;21140;-63
2021/11/27 05:42:57;;;;;;;9.25;6.15;;;;;;;6.63;100.00;97505.73;1608855;87;21493;-65
2021/11/27 05:45:29;;;;;;;7.25;5.45;;;;;;;6.63;100.00;97502.19;1613986;87;21135;-64
2021/11/27 05:47:59;;;;;;;8.63;6.28;;;;;;;6.62;100.00;97506.85;1613199;87;21020;-65
2021/11/27 05:50:28;;;;;;;9.85;6.67;;;;;;;6.62;100.00;97501.97;1574664;87;21040;-62
2021/11/27 05:52:55;;;;;;;9.25;7.03;;;;;;;6.62;100.00;97500.01;1621967;87;21557;-62
2021/11/27 05:55:22;;;;;;;8.98;6.62;;;;;;;6.62;100.00;97501.97;1612320;87;21072;-61
2021/11/27 05:57:49;;;;;;;9.93;6.92;;;;;;;6.62;100.00;97495.91;1633387;85;21259;-62
2021/11/27 06:00:17;;;;;;;11.33;7.30;;;;;;;6.65;100.00;97501.28;1634871;86;21075;-62
2021/11/27 06:02:44;;;;;;;8.18;6.37;;;;;;;6.65;100.00;97506.16;1639841;85;21020;-62
2021/11/27 06:05:11;;;;;;;10.63;7.80;;;;;;;6.67;100.00;97501.73;1635330;85;21144;-63
2021/11/27 06:07:37;;;;;;;12.18;7.37;;;;;;;6.68;100.00;97506.87;1649431;85;21065;-63
2021/11/27 06:10:06;;;;;;;11.70;7.30;;;;;;;6.72;100.00;97510.28;1624435;85;21631;-64
2021/11/27 06:12:32;;;;;;;11.25;8.28;;;;;;;6.74;100.00;97514.26;1654962;85;21556;-63
2021/11/27 06:15:00;;;;;;;10.25;7.25;;;;;;;6.79;100.00;97515.98;1643866;86;21055;-64
2021/11/27 06:17:26;;;;;;;11.10;7.62;;;;;;;6.84;100.00;97517.69;1619910;85;21042;-64
2021/11/27 06:19:52;;;;;;;11.73;9.00;;;;;;;6.88;100.00;97521.31;1641639;85;21558;-62
2021/11/27 06:22:22;;;;;;;9.80;8.08;;;;;;;6.92;100.00;97518.94;1649492;85;21020;-62
2021/11/27 06:24:47;;;;;;;11.00;8.00;;;;;;;6.94;100.00;97522.70;1651148;86;21162;-63
2021/11/27 06:27:14;;;;;;;11.85;7.85;;;;;;;6.97;100.00;97521.19;1653244;86;21071;-64
2021/11/27 06:29:41;;;;;;;12.68;8.38;;;;;;;7.00;100.00;97527.34;1643226;85;21151;-63
2021/11/27 06:32:11;;;;;;;15.78;9.65;;;;;;;7.04;100.00;97529.63;1645716;85;21054;-64
2021/11/27 06:34:38;;;;;;;15.93;9.08;;;;;;;7.06;100.00;97519.91;1643581;86;21064;-61
2021/11/27 06:37:05;;;;;;;20.17;11.30;;;;;;;7.09;100.00;97525.85;1646604;85;21064;-64
2021/11/27 06:39:31;;;;;;;17.30;10.88;;;;;;;7.12;100.00;97531.44;1650721;85;21001;-65
2021/11/27 06:41:58;;;;;;;14.03;9.08;;;;;;;7.19;100.00;97528.11;1640851;86;21537;-62
2021/11/27 06:44:48;;;;;;;18.80;10.88;;;;;;;7.23;100.00;97534.51;1618838;86;21473;-64
2021/11/27 06:47:16;;;;;;;16.62;10.43;;;;;;;7.24;100.00;97535.28;1647450;86;21056;-66
2021/11/27 06:49:43;;;;;;;17.35;11.88;;;;;;;7.26;100.00;97532.44;1662941;85;21084;-66
2021/11/27 06:52:12;;;;;;;19.17;12.53;;;;;;;7.30;100.00;97536.66;1661280;85;21773;-62
2021/11/27 06:54:39;;;;;;;14.60;10.88;;;;;;;7.32;100.00;97536.31;1651389;86;21052;-66
2021/11/27 06:57:08;;;;;;;16.42;11.55;;;;;;;7.34;100.00;97544.95;1654799;85;21095;-66
2021/11/27 06:59:35;;;;;;;20.75;13.40;;;;;;;7.35;100.00;97546.00;1638164;85;21528;-66
2021/11/27 07:02:19;;;;;;;20.77;13.62;;;;;;;7.38;100.00;97548.61;1662624;85;21084;-64
2021/11/27 07:05:06;;;;;;;21.48;14.45;;;;;;;7.43;100.00;97549.73;1648184;85;21047;-64
2021/11/27 07:07:35;;;;;;;19.25;14.28;;;;;;;7.46;100.00;97546.30;1622166;86;21551;-65
2021/11/27 07:10:09;;;;;;;22.35;15.03;;;;;;;7.51;100.00;97552.10;1650623;85;21009;-65
2021/11/27 07:12:39;;;;;;;21.50;13.25;;;;;;;7.54;100.00;97545.36;1648439;86;21005;-63
2021/11/27 07:15:08;;;;;;;26.82;15.20;;;;;;;7.57;100.00;97552.66;1645194;85;21504;-65
2021/11/27 07:17:36;;;;;;;21.05;14.15;;;;;;;7.58;100.00;97560.53;1647889;85;21100;-65
2021/11/27 07:20:05;;;;;;;20.45;15.18;;;;;;;7.61;100.00;97548.09;1644187;85;21259;-65
2021/11/27 07:22:31;;;;;;;22.82;14.90;;;;;;;7.65;100.00;97553.09;1645787;85;21517;-64
2021/11/27 07:24:58;;;;;;;25.00;17.60;;;;;;;7.71;100.00;97555.80;1649575;86;21016;-65
2021/11/27 07:27:26;;;;;;;25.25;17.15;;;;;;;7.74;100.00;97557.05;1649395;85;21114;-66
2021/11/27 07:29:55;;;;;;;23.80;16.00;;;;;;;7.78;100.00;97556.00;1653459;86;21103;-65
2021/11/27 07:32:22;;;;;;;25.52;17.23;;;;;;;7.83;100.00;97552.80;1655985;86;21533;-67
2021/11/27 07:34:48;;;;;;;28.35;17.00;;;;;;;7.87;100.00;97557.79;1651938;85;21012;-64
2021/11/27 07:37:15;;;;;;;22.65;16.35;;;;;;;7.87;100.00;97558.59;1650216;85;21027;-65
2021/11/27 07:39:42;;;;;;;26.12;16.62;;;;;;;7.89;100.00;97554.13;1646343;85;21497;-65
2021/11/27 07:42:10;;;;;;;26.10;17.98;;;;;;;7.92;99.86;97561.66;1639223;86;21159;-66
2021/11/27 07:44:51;;;;;;;28.92;17.85;;;;;;;7.90;99.48;97557.89;1639071;85;21180;-64
2021/11/27 07:47:40;;;;;;;27.40;18.55;;;;;;;7.93;99.53;97564.64;1641997;86;21579;-66
2021/11/27 07:50:20;;;;;;;29.37;17.60;;;;;;;7.96;99.48;97561.19;1641885;85;21055;-65
2021/11/27 07:53:07;;;;;;;26.40;17.52;;;;;;;7.98;99.15;97567.13;1644791;86;21145;-64
2021/11/27 07:55:34;;;;;;;28.32;18.62;;;;;;;8.01;99.14;97571.09;1643659;85;21032;-66
2021/11/27 07:58:01;;;;;;;31.37;20.23;;;;;;;8.05;99.06;97573.38;1647019;85;21912;-64
2021/11/27 08:00:28;;;;;;;25.65;17.12;;;;;;;8.09;98.84;97577.56;1647568;85;21056;-64
2021/11/27 08:02:54;;;;;;;27.10;18.95;;;;;;;8.14;98.64;97574.56;1620767;85;21055;-65
2021/11/27 08:05:23;;;;;;;29.35;19.55;;;;;;;8.15;98.23;97572.06;1645529;85;21504;-65
2021/11/27 08:07:52;;;;;;;37.17;19.90;;;;;;;8.19;98.29;97570.80;1641236;85;20993;-66
2021/11/27 08:10:21;;;;;;;30.65;19.95;;;;;;;8.23;98.15;97579.33;1651358;85;21230;-64
2021/11/27 08:12:47;;;;;;;27.07;18.73;;;;;;;8.30;98.04;97578.72;1640543;85;21119;-65
2021/11/27 08:15:14;;;;;;;32.35;20.75;;;;;;;8.37;97.92;97582.22;1654778;85;21107;-65
2021/11/27 08:17:42;;;;;;;28.07;19.10;;;;;;;8.40;97.48;97581.52;1654614;85;21064;-63
2021/11/27 08:20:10;;;;;;;30.40;20.17;;;;;;;8.42;97.21;97576.47;1618073;86;21015;-65
2021/11/27 08:22:38;;;;;;;36.40;20.90;;;;;;;8.44;97.07;97588.47;1628711;86;21071;-67
2021/11/27 08:25:07;;;;;;;32.25;19.90;;;;;;;8.48;96.96;97577.80;1648593;85;21028;-65
2021/11/27 08:27:34;;;;;;;38.02;23.10;;;;;;;8.56;96.70;97580.76;1646175;85;21099;-66
2021/11/27 08:30:04;;;;;;;44.63;24.65;;;;;;;8.64;96.82;97586.08;1647489;85;21571;-65
2021/11/27 08:32:32;;;;;;;50.52;25.95;;;;;;;8.73;96.47;97581.78;1627451;86;21540;-64
2021/11/27 08:34:59;;;;;;;34.23;21.10;;;;;;;8.83;95.91;97590.05;1647306;85;21151;-66
2021/11/27 08:37:29;;;;;;;31.52;20.82;;;;;;;8.88;95.62;97596.66;1645788;85;21099;-65
2021/11/27 08:39:57;;;;;;;27.75;17.87;;;;;;;8.92;95.08;97594.00;1646259;85;21044;-66
2021/11/27 08:42:24;;;;;;;33.08;20.12;;;;;;;8.95;94.68;97589.16;1648176;85;21096;-67
2021/11/27 08:44:50;;;;;;;29.57;19.05;;;;;;;8.95;94.22;97586.41;1644985;86;21067;-65
2021/11/27 08:47:19;;;;;;;31.12;18.82;;;;;;;8.98;93.71;97585.69;1643663;86;21060;-65
2021/11/27 08:49:46;;;;;;;29.85;18.95;;;;;;;9.03;93.27;97583.81;1650564;85;21032;-64
2021/11/27 08:52:13;;;;;;;27.98;20.05;;;;;;;9.06;93.02;97578.41;1641651;86;21174;-65
2021/11/27 08:54:40;;;;;;;26.73;19.45;;;;;;;9.10;92.75;97577.92;1651235;85;21713;-67
2021/11/27 08:57:07;;;;;;;29.15;19.17;;;;;;;9.15;92.26;97574.09;1642793;85;21685;-66
2021/11/27 08:59:33;;;;;;;31.95;19.52;;;;;;;9.21;91.81;97571.88;1647851;86;21205;-66
2021/11/27 09:02:00;;;;;;;26.05;18.35;;;;;;;9.25;91.35;97573.54;1649588;85;21094;-64
2021/11/27 09:04:28;;;;;;;27.15;18.30;;;;;;;9.31;91.18;97582.88;1653210;85;21028;-66
2021/11/27 09:06:55;;;;;;;30.00;18.82;;;;;;;9.36;90.57;97589.47;1640336;85;21511;-65
2021/11/27 09:09:21;;;;;;;27.07;18.07;;;;;;;9.40;89.92;97592.30;1654929;85;21035;-64
2021/11/27 09:11:49;;;;;;;28.55;18.35;;;;;;;9.41;89.35;97596.06;1636956;85;21138;-66
2021/11/27 09:14:18;;;;;;;28.87;18.25;;;;;;;9.41;88.86;97591.94;1638478;85;21068;-65
2021/11/27 09:16:48;;;;;;;28.75;18.42;;;;;;;9.41;88.39;97598.00;1648525;85;21099;-65
2021/11/27 09:19:14;;;;;;;30.97;19.35;;;;;;;9.37;87.90;97597.36;1650629;85;21087;-66
2021/11/27 09:21:42;;;;;;;26.75;17.00;;;;;;;9.35;87.48;97594.73;1647891;85;21565;-66
2021/11/27 09:24:09;;;;;;;26.33;17.92;;;;;;;9.30;87.01;97595.81;1647265;85;21192;-66
2021/11/27 09:26:37;;;;;;;23.90;16.05;;;;;;;9.27;86.72;97602.60;1643496;85;21489;-65
2021/11/27 09:29:07;;;;;;;24.18;16.82;;;;;;;9.23;86.61;97595.65;1632927;86;21048;-64
2021/11/27 09:31:39;;;;;;;25.50;16.35;;;;;;;9.20;86.30;97612.28;1647811;85;21047;-67
2021/11/27 09:34:04;;;;;;;28.02;16.52;;;;;;;9.20;86.18;97616.41;1640300;86;21010;-67
2021/11/27 09:36:31;;;;;;;26.90;15.72;;;;;;;9.22;86.22;97617.42;1624325;87;21286;-65
2021/11/27 09:38:59;;;;;;;35.40;16.67;;;;;;;9.29;86.12;97619.53;1633287;86;21600;-67
2021/11/27 09:41:29;;;;;;;23.45;15.32;;;;;;;9.37;86.18;97624.03;1629967;85;21540;-66
2021/11/27 09:43:58;;;;;;;24.52;15.58;;;;;;;9.47;85.83;97625.42;1640142;85;21095;-67
2021/11/27 09:46:29;;;;;;;22.95;15.78;;;;;;;9.58;85.20;97611.92;1633705;86;21088;-67
2021/11/27 09:48:59;;;;;;;23.42;16.23;;;;;;;9.70;84.99;97613.17;1643881;86;21101;-67
2021/11/27 09:51:29;;;;;;;27.62;16.32;;;;;;;9.81;84.15;97610.63;1600139;88;21250;-67
2021/11/27 09:53:56;;;;;;;27.73;16.25;;;;;;;9.92;83.60;97607.30;1643208;85;21128;-67
2021/11/27 09:56:25;;;;;;;25.37;15.72;;;;;;;10.04;83.36;97600.28;1636775;86;21044;-66
2021/11/27 09:58:54;;;;;;;18.75;13.18;;;;;;;10.14;82.68;97597.52;1640411;85;21090;-67
2021/11/27 10:01:28;;;;;;;26.68;15.72;;;;;;;10.22;82.10;97589.60;1647186;85;21752;-67
2021/11/27 10:04:08;;;;;;;22.32;15.50;;;;;;;10.23;81.44;97593.94;1645740;86;21660;-67
2021/11/27 10:06:38;;;;;;;30.77;16.05;;;;;;;10.19;80.13;97588.96;1639545;85;21059;-64
2021/11/27 10:09:11;;;;;;;22.35;15.53;;;;;;;10.14;80.11;97584.33;1644651;85;21528;-66
2021/11/27 10:11:37;;;;;;;21.77;14.60;;;;;;;10.18;80.03;97587.95;1644045;85;21643;-65
2021/11/27 10:14:06;;;;;;;22.70;13.90;;;;;;;10.25;79.83;97583.16;1645791;86;21045;-66
2021/11/27 10:16:37;;;;;;;21.90;15.05;;;;;;;10.33;79.44;97595.89;1645922;86;21496;-67
2021/11/27 10:19:09;;;;;;;21.77;15.20;;;;;;;10.37;78.76;97598.14;1645397;85;21072;-66
2021/11/27 10:21:39;;;;;;;20.80;13.68;;;;;;;10.37;78.11;97590.45;1645374;86;21023;-64
2021/11/27 10:24:24;;;;;;;21.75;14.28;;;;;;;10.39;77.83;97588.14;1652060;86;21135;-64
2021/11/27 10:26:50;;;;;;;20.40;13.75;;;;;;;10.43;77.61;97586.23;1627003;86;21553;-65
2021/11/27 10:29:29;;;;;;;18.67;12.35;;;;;;;10.53;77.16;97582.89;1643001;86;21075;-66
2021/11/27 10:32:17;;;;;;;17.85;12.70;;;;;;;10.68;76.67;97590.81;1645035;85;21539;-65
2021/11/27 10:34:51;;;;;;;21.80;14.25;;;;;;;10.86;76.03;97595.83;1651186;86;21070;-64
2021/11/27 10:37:40;;;;;;;21.45;14.28;;;;;;;10.98;75.81;97585.19;1643811;85;21024;-65
2021/11/27 10:40:20;;;;;;;21.73;14.45;;;;;;;11.05;75.29;97589.41;1650820;85;21170;-64
2021/11/27 10:43:03;;;;;;;19.85;13.35;;;;;;;11.02;74.21;97591.54;1642914;86;21057;-64
2021/11/27 10:45:33;;;;;;;20.70;13.75;;;;;;;10.90;73.90;97586.25;1643032;85;21029;-66
2021/11/27 10:48:14;;;;;;;18.42;10.95;;;;;;;10.78;73.53;97592.15;1650594;85;21047;-66
2021/11/27 10:50:52;;;;;;;15.53;10.48;;;;;;;10.66;73.36;97593.73;1654023;85;21089;-64
2021/11/27 10:53:33;;;;;;;18.52;12.85;;;;;;;10.55;73.28;97591.59;1633364;86;21934;-63
2021/11/27 10:56:09;;;;;;;21.33;13.78;;;;;;;10.51;73.36;97585.81;1650241;86;21061;-64
2021/11/27 10:59:00;;;;;;;20.60;13.48;;;;;;;10.44;73.42;97596.09;1649289;85;21627;-63
2021/11/27 11:01:27;;;;;;;17.12;12.90;;;;;;;10.42;73.59;97607.45;1628202;85;21047;-65
2021/11/27 11:03:54;;;;;;;22.17;13.40;;;;;;;10.45;73.63;97610.88;1650017;85;21687;-65
2021/11/27 11:06:24;;;;;;;17.32;12.03;;;;;;;10.51;73.87;97612.75;1651091;86;21220;-65
2021/11/27 11:08:52;;;;;;;19.65;12.28;;;;;;;10.55;73.52;97605.93;1641357;85;21051;-63
2021/11/27 11:11:25;;;;;;;26.48;12.23;;;;;;;10.53;73.32;97609.63;1650122;85;21512;-65
2021/11/27 11:13:58;;;;;;;17.40;12.05;;;;;;;10.47;73.11;97620.17;1648360;85;21017;-65
2021/11/27 11:16:32;;;;;;;16.95;11.38;;;;;;;10.43;73.54;97624.77;1648616;85;21194;-66
2021/11/27 11:19:13;;;;;;;21.02;13.45;;;;;;;10.41;73.71;97616.88;1651007;86;21145;-66
2021/11/27 11:22:07;;;;;;;15.40;11.93;;;;;;;10.48;73.59;97627.25;1649228;86;21142;-65
2021/11/27 11:24:37;;;;;;;23.67;12.43;;;;;;;10.70;73.58;97630.38;1652056;86;21095;-65
2021/11/27 11:27:09;;;;;;;18.65;12.03;;;;;;;11.18;72.96;97642.97;1633649;85;21031;-65
2021/11/27 11:29:50;;;;;;;16.87;12.23;;;;;;;11.56;72.16;97652.78;1638786;85;21055;-65
2021/11/27 11:32:23;;;;;;;24.32;15.00;;;;;;;11.90;71.41;97657.56;1636906;86;21115;-67
2021/11/27 11:34:57;;;;;;;22.95;13.50;;;;;;;12.13;69.85;97658.09;1639281;86;21048;-66
2021/11/27 11:37:22;;;;;;;20.80;12.98;;;;;;;12.22;68.76;97664.09;1635228;85;21235;-65
2021/11/27 11:39:48;;;;;;;15.18;11.75;;;;;;;12.13;67.89;97653.34;1632399;86;21088;-63